sensor_id;sensor_type;location;lat;lon;timestamp;P1;durP1;ratioP1;P2;durP2;ratioP2
3571;SDS011;7958;53.024;12.970;2023-01-19T00:01:26;14.63;;;8.10;;
3571;SDS011;7958;53.024;12.970;2023-01-19T00:03:55;16.63;;;8.63;;
3571;SDS011;7958;53.024;12.970;2023-01-19T00:06:22;14.87;;;9.10;;
3571;SDS011;7958;53.024;12.970;2023-01-19T00:08:48;16.83;;;8.30;;
3571;SDS011;7958;53.024;12.970;2023-01-19T00:11:15;22.87;;;9.70;;
3571;SDS011;7958;53.024;12.970;2023-01-19T00:13:44;16.00;;;8.70;;
3571;SDS011;7958;53.024;12.970;2023-01-19T00:16:15;17.57;;;8.53;;
3571;SDS011;7958;53.024;12.970;2023-01-19T00:18:50;11.80;;;7.70;;
3571;SDS011;7958;53.024;12.970;2023-01-19T00:21:17;13.63;;;7.50;;
3571;SDS011;7958;53.024;12.970;2023-01-19T00:23:43;10.60;;;6.70;;
3571;SDS011;7958;53.024;12.970;2023-01-19T00:26:15;13.57;;;7.80;;
3571;SDS011;7958;53.024;12.970;2023-01-19T00:28:43;16.90;;;7.90;;
3571;SDS011;7958;53.024;12.970;2023-01-19T00:31:09;19.03;;;9.27;;
3571;SDS011;7958;53.024;12.970;2023-01-19T00:33:37;24.50;;;10.30;;
3571;SDS011;7958;53.024;12.970;2023-01-19T00:36:04;18.70;;;9.33;;
3571;SDS011;7958;53.024;12.970;2023-01-19T00:38:30;12.67;;;8.10;;
3571;SDS011;7958;53.024;12.970;2023-01-19T00:41:00;18.10;;;9.20;;
3571;SDS011;7958;53.024;12.970;2023-01-19T00:43:26;18.43;;;9.10;;
3571;SDS011;7958;53.024;12.970;2023-01-19T00:45:53;18.83;;;8.73;;
3571;SDS011;7958;53.024;12.970;2023-01-19T00:48:25;16.23;;;9.53;;
3571;SDS011;7958;53.024;12.970;2023-01-19T00:50:53;24.63;;;8.70;;
3571;SDS011;7958;53.024;12.970;2023-01-19T00:53:19;19.87;;;8.80;;
3571;SDS011;7958;53.024;12.970;2023-01-19T00:55:45;19.67;;;9.80;;
3571;SDS011;7958;53.024;12.970;2023-01-19T00:58:12;21.63;;;9.60;;
3571;SDS011;7958;53.024;12.970;2023-01-19T01:00:38;15.57;;;7.60;;
3571;SDS011;7958;53.024;12.970;2023-01-19T01:03:05;11.27;;;7.60;;
3571;SDS011;7958;53.024;12.970;2023-01-19T01:05:31;14.70;;;8.17;;
3571;SDS011;7958;53.024;12.970;2023-01-19T01:07:58;10.73;;;7.17;;
3571;SDS011;7958;53.024;12.970;2023-01-19T01:10:26;11.37;;;6.83;;
3571;SDS011;7958;53.024;12.970;2023-01-19T01:12:53;10.40;;;6.80;;
3571;SDS011;7958;53.024;12.970;2023-01-19T01:15:20;10.50;;;7.10;;
3571;SDS011;7958;53.024;12.970;2023-01-19T01:17:47;12.50;;;6.93;;
3571;SDS011;7958;53.024;12.970;2023-01-19T01:20:14;10.83;;;6.90;;
3571;SDS011;7958;53.024;12.970;2023-01-19T01:22:46;13.97;;;6.77;;
3571;SDS011;7958;53.024;12.970;2023-01-19T01:25:18;11.60;;;7.23;;
3571;SDS011;7958;53.024;12.970;2023-01-19T01:27:52;14.80;;;7.10;;
3571;SDS011;7958;53.024;12.970;2023-01-19T01:30:22;13.83;;;7.43;;
3571;SDS011;7958;53.024;12.970;2023-01-19T01:32:51;10.17;;;7.00;;
3571;SDS011;7958;53.024;12.970;2023-01-19T01:35:18;14.00;;;7.40;;
3571;SDS011;7958;53.024;12.970;2023-01-19T01:37:45;19.53;;;6.97;;
3571;SDS011;7958;53.024;12.970;2023-01-19T01:40:12;10.53;;;7.20;;
3571;SDS011;7958;53.024;12.970;2023-01-19T01:42:44;13.23;;;6.70;;
3571;SDS011;7958;53.024;12.970;2023-01-19T01:45:20;10.67;;;6.20;;
3571;SDS011;7958;53.024;12.970;2023-01-19T01:47:52;13.27;;;7.20;;
3571;SDS011;7958;53.024;12.970;2023-01-19T01:50:24;10.07;;;6.77;;
3571;SDS011;7958;53.024;12.970;2023-01-19T01:52:53;10.90;;;6.70;;
3571;SDS011;7958;53.024;12.970;2023-01-19T01:55:21;12.30;;;7.27;;
3571;SDS011;7958;53.024;12.970;2023-01-19T01:57:50;11.90;;;7.60;;
3571;SDS011;7958;53.024;12.970;2023-01-19T02:00:18;11.47;;;7.50;;
3571;SDS011;7958;53.024;12.970;2023-01-19T02:02:45;12.80;;;6.80;;
3571;SDS011;7958;53.024;12.970;2023-01-19T02:05:20;13.77;;;7.13;;
3571;SDS011;7958;53.024;12.970;2023-01-19T02:07:49;12.97;;;7.10;;
3571;SDS011;7958;53.024;12.970;2023-01-19T02:10:38;10.00;;;6.50;;
3571;SDS011;7958;53.024;12.970;2023-01-19T02:13:25;10.77;;;6.70;;
3571;SDS011;7958;53.024;12.970;2023-01-19T02:15:52;14.80;;;7.10;;
3571;SDS011;7958;53.024;12.970;2023-01-19T02:18:20;11.03;;;6.87;;
3571;SDS011;7958;53.024;12.970;2023-01-19T02:20:50;11.90;;;6.70;;
3571;SDS011;7958;53.024;12.970;2023-01-19T02:23:26;10.60;;;7.20;;
3571;SDS011;7958;53.024;12.970;2023-01-19T02:25:56;10.37;;;6.43;;
3571;SDS011;7958;53.024;12.970;2023-01-19T02:28:23;11.53;;;6.40;;
3571;SDS011;7958;53.024;12.970;2023-01-19T02:30:50;12.53;;;6.93;;
3571;SDS011;7958;53.024;12.970;2023-01-19T02:33:20;11.87;;;7.20;;
3571;SDS011;7958;53.024;12.970;2023-01-19T02:35:49;12.60;;;8.00;;
3571;SDS011;7958;53.024;12.970;2023-01-19T02:38:17;11.67;;;7.20;;
3571;SDS011;7958;53.024;12.970;2023-01-19T02:40:48;10.23;;;7.10;;
3571;SDS011;7958;53.024;12.970;2023-01-19T02:43:15;14.83;;;8.27;;
3571;SDS011;7958;53.024;12.970;2023-01-19T02:45:42;12.30;;;6.90;;
3571;SDS011;7958;53.024;12.970;2023-01-19T02:48:09;13.40;;;7.10;;
3571;SDS011;7958;53.024;12.970;2023-01-19T02:50:37;11.93;;;7.87;;
3571;SDS011;7958;53.024;12.970;2023-01-19T02:56:00;14.00;;;7.80;;
3571;SDS011;7958;53.024;12.970;2023-01-19T02:58:32;12.80;;;7.80;;
3571;SDS011;7958;53.024;12.970;2023-01-19T03:01:04;14.53;;;7.30;;
3571;SDS011;7958;53.024;12.970;2023-01-19T03:03:47;13.33;;;7.37;;
3571;SDS011;7958;53.024;12.970;2023-01-19T03:06:21;11.80;;;7.53;;
3571;SDS011;7958;53.024;12.970;2023-01-19T03:08:54;13.60;;;8.40;;
3571;SDS011;7958;53.024;12.970;2023-01-19T03:11:25;9.93;;;6.70;;
3571;SDS011;7958;53.024;12.970;2023-01-19T03:13:56;12.70;;;6.90;;
3571;SDS011;7958;53.024;12.970;2023-01-19T03:16:24;11.40;;;7.10;;
3571;SDS011;7958;53.024;12.970;2023-01-19T03:18:55;12.37;;;7.37;;
3571;SDS011;7958;53.024;12.970;2023-01-19T03:21:29;10.30;;;7.30;;
3571;SDS011;7958;53.024;12.970;2023-01-19T03:23:57;10.70;;;7.27;;
3571;SDS011;7958;53.024;12.970;2023-01-19T03:26:28;10.50;;;7.20;;
3571;SDS011;7958;53.024;12.970;2023-01-19T03:28:57;12.37;;;7.53;;
3571;SDS011;7958;53.024;12.970;2023-01-19T03:31:25;13.43;;;7.17;;
3571;SDS011;7958;53.024;12.970;2023-01-19T03:33:53;10.10;;;6.80;;
3571;SDS011;7958;53.024;12.970;2023-01-19T03:36:23;12.70;;;7.40;;
3571;SDS011;7958;53.024;12.970;2023-01-19T03:38:53;12.17;;;7.50;;
3571;SDS011;7958;53.024;12.970;2023-01-19T03:41:21;15.83;;;7.20;;
3571;SDS011;7958;53.024;12.970;2023-01-19T03:43:53;14.03;;;7.13;;
3571;SDS011;7958;53.024;12.970;2023-01-19T03:46:20;9.13;;;6.73;;
3571;SDS011;7958;53.024;12.970;2023-01-19T03:48:47;10.80;;;6.27;;
3571;SDS011;7958;53.024;12.970;2023-01-19T03:51:17;10.53;;;6.73;;
3571;SDS011;7958;53.024;12.970;2023-01-19T03:53:47;11.10;;;7.13;;
3571;SDS011;7958;53.024;12.970;2023-01-19T03:56:17;12.73;;;7.70;;
3571;SDS011;7958;53.024;12.970;2023-01-19T03:58:44;11.43;;;7.13;;
3571;SDS011;7958;53.024;12.970;2023-01-19T04:01:12;9.67;;;7.23;;
3571;SDS011;7958;53.024;12.970;2023-01-19T04:03:39;12.77;;;7.60;;
3571;SDS011;7958;53.024;12.970;2023-01-19T04:06:05;10.13;;;7.37;;
3571;SDS011;7958;53.024;12.970;2023-01-19T04:08:32;12.30;;;7.40;;
3571;SDS011;7958;53.024;12.970;2023-01-19T04:11:01;9.17;;;6.80;;
3571;SDS011;7958;53.024;12.970;2023-01-19T04:13:28;16.53;;;7.90;;
3571;SDS011;7958;53.024;12.970;2023-01-19T04:15:58;13.47;;;7.93;;
3571;SDS011;7958;53.024;12.970;2023-01-19T04:18:27;12.03;;;7.13;;
3571;SDS011;7958;53.024;12.970;2023-01-19T04:20:54;10.80;;;7.33;;
3571;SDS011;7958;53.024;12.970;2023-01-19T04:23:20;12.00;;;6.90;;
3571;SDS011;7958;53.024;12.970;2023-01-19T04:25:50;10.23;;;7.10;;
3571;SDS011;7958;53.024;12.970;2023-01-19T04:28:22;11.80;;;7.40;;
3571;SDS011;7958;53.024;12.970;2023-01-19T04:30:52;11.80;;;7.50;;
3571;SDS011;7958;53.024;12.970;2023-01-19T04:33:19;14.03;;;8.33;;
3571;SDS011;7958;53.024;12.970;2023-01-19T04:35:48;11.90;;;6.80;;
3571;SDS011;7958;53.024;12.970;2023-01-19T04:38:15;12.17;;;6.50;;
3571;SDS011;7958;53.024;12.970;2023-01-19T04:40:45;10.40;;;6.50;;
3571;SDS011;7958;53.024;12.970;2023-01-19T04:43:11;16.03;;;7.03;;
3571;SDS011;7958;53.024;12.970;2023-01-19T04:45:38;11.30;;;7.10;;
3571;SDS011;7958;53.024;12.970;2023-01-19T04:48:05;11.87;;;7.10;;
3571;SDS011;7958;53.024;12.970;2023-01-19T04:50:31;11.87;;;7.30;;
3571;SDS011;7958;53.024;12.970;2023-01-19T04:52:59;10.83;;;6.90;;
3571;SDS011;7958;53.024;12.970;2023-01-19T04:55:26;10.87;;;6.70;;
3571;SDS011;7958;53.024;12.970;2023-01-19T04:57:53;11.30;;;6.97;;
3571;SDS011;7958;53.024;12.970;2023-01-19T05:00:20;10.93;;;6.90;;
3571;SDS011;7958;53.024;12.970;2023-01-19T05:02:47;9.90;;;6.97;;
3571;SDS011;7958;53.024;12.970;2023-01-19T05:05:14;13.57;;;7.23;;
3571;SDS011;7958;53.024;12.970;2023-01-19T05:07:41;11.13;;;7.00;;
3571;SDS011;7958;53.024;12.970;2023-01-19T05:10:09;16.00;;;7.10;;
3571;SDS011;7958;53.024;12.970;2023-01-19T05:12:36;11.27;;;6.40;;
3571;SDS011;7958;53.024;12.970;2023-01-19T05:15:03;13.07;;;6.97;;
3571;SDS011;7958;53.024;12.970;2023-01-19T05:17:31;11.70;;;7.40;;
3571;SDS011;7958;53.024;12.970;2023-01-19T05:19:58;9.70;;;6.60;;
3571;SDS011;7958;53.024;12.970;2023-01-19T05:22:24;12.47;;;7.23;;
3571;SDS011;7958;53.024;12.970;2023-01-19T05:24:51;14.70;;;7.00;;
3571;SDS011;7958;53.024;12.970;2023-01-19T05:27:19;9.47;;;6.93;;
3571;SDS011;7958;53.024;12.970;2023-01-19T05:29:46;12.60;;;7.37;;
3571;SDS011;7958;53.024;12.970;2023-01-19T05:32:12;10.40;;;6.63;;
3571;SDS011;7958;53.024;12.970;2023-01-19T05:34:38;10.00;;;6.93;;
3571;SDS011;7958;53.024;12.970;2023-01-19T05:37:05;10.77;;;7.13;;
3571;SDS011;7958;53.024;12.970;2023-01-19T05:39:31;10.43;;;6.83;;
3571;SDS011;7958;53.024;12.970;2023-01-19T05:41:58;12.43;;;7.73;;
3571;SDS011;7958;53.024;12.970;2023-01-19T05:44:25;10.37;;;7.20;;
3571;SDS011;7958;53.024;12.970;2023-01-19T05:46:52;15.80;;;7.00;;
3571;SDS011;7958;53.024;12.970;2023-01-19T05:49:18;13.53;;;7.10;;
3571;SDS011;7958;53.024;12.970;2023-01-19T05:51:47;14.43;;;7.37;;
3571;SDS011;7958;53.024;12.970;2023-01-19T05:54:14;12.90;;;7.60;;
3571;SDS011;7958;53.024;12.970;2023-01-19T05:56:40;11.03;;;6.53;;
3571;SDS011;7958;53.024;12.970;2023-01-19T05:59:06;11.00;;;7.03;;
3571;SDS011;7958;53.024;12.970;2023-01-19T06:01:34;9.60;;;6.20;;
3571;SDS011;7958;53.024;12.970;2023-01-19T06:04:03;15.03;;;8.30;;
3571;SDS011;7958;53.024;12.970;2023-01-19T06:06:29;12.80;;;6.93;;
3571;SDS011;7958;53.024;12.970;2023-01-19T06:08:55;11.90;;;7.00;;
3571;SDS011;7958;53.024;12.970;2023-01-19T06:11:22;14.97;;;7.53;;
3571;SDS011;7958;53.024;12.970;2023-01-19T06:13:50;10.77;;;7.03;;
3571;SDS011;7958;53.024;12.970;2023-01-19T06:16:16;12.67;;;7.10;;
3571;SDS011;7958;53.024;12.970;2023-01-19T06:18:43;12.07;;;7.10;;
3571;SDS011;7958;53.024;12.970;2023-01-19T06:21:10;13.50;;;7.47;;
3571;SDS011;7958;53.024;12.970;2023-01-19T06:23:38;13.30;;;7.37;;
3571;SDS011;7958;53.024;12.970;2023-01-19T06:26:04;10.40;;;6.90;;
3571;SDS011;7958;53.024;12.970;2023-01-19T06:28:31;10.77;;;6.40;;
3571;SDS011;7958;53.024;12.970;2023-01-19T06:30:57;11.10;;;7.17;;
3571;SDS011;7958;53.024;12.970;2023-01-19T06:33:24;10.77;;;7.00;;
3571;SDS011;7958;53.024;12.970;2023-01-19T06:35:52;11.40;;;7.27;;
3571;SDS011;7958;53.024;12.970;2023-01-19T06:38:20;11.60;;;6.00;;
3571;SDS011;7958;53.024;12.970;2023-01-19T06:40:50;11.17;;;6.70;;
3571;SDS011;7958;53.024;12.970;2023-01-19T06:43:17;9.37;;;6.67;;
3571;SDS011;7958;53.024;12.970;2023-01-19T06:45:44;9.83;;;6.73;;
3571;SDS011;7958;53.024;12.970;2023-01-19T06:48:11;11.60;;;7.70;;
3571;SDS011;7958;53.024;12.970;2023-01-19T06:50:37;10.50;;;6.97;;
3571;SDS011;7958;53.024;12.970;2023-01-19T06:53:06;12.13;;;6.73;;
3571;SDS011;7958;53.024;12.970;2023-01-19T06:55:32;12.53;;;6.90;;
3571;SDS011;7958;53.024;12.970;2023-01-19T06:58:00;13.30;;;7.67;;
3571;SDS011;7958;53.024;12.970;2023-01-19T07:00:26;15.63;;;6.80;;
3571;SDS011;7958;53.024;12.970;2023-01-19T07:02:56;12.90;;;7.80;;
3571;SDS011;7958;53.024;12.970;2023-01-19T07:05:22;12.50;;;7.40;;
3571;SDS011;7958;53.024;12.970;2023-01-19T07:07:50;8.57;;;6.87;;
3571;SDS011;7958;53.024;12.970;2023-01-19T07:10:18;13.70;;;7.23;;
3571;SDS011;7958;53.024;12.970;2023-01-19T07:12:45;11.80;;;6.87;;
3571;SDS011;7958;53.024;12.970;2023-01-19T07:15:12;14.67;;;8.03;;
3571;SDS011;7958;53.024;12.970;2023-01-19T07:17:38;11.60;;;7.43;;
3571;SDS011;7958;53.024;12.970;2023-01-19T07:20:06;11.47;;;7.53;;
3571;SDS011;7958;53.024;12.970;2023-01-19T07:22:35;10.67;;;7.40;;
3571;SDS011;7958;53.024;12.970;2023-01-19T07:25:01;12.20;;;7.90;;
3571;SDS011;7958;53.024;12.970;2023-01-19T07:27:30;12.00;;;7.60;;
3571;SDS011;7958;53.024;12.970;2023-01-19T07:29:56;10.70;;;7.00;;
3571;SDS011;7958;53.024;12.970;2023-01-19T07:32:25;10.60;;;7.53;;
3571;SDS011;7958;53.024;12.970;2023-01-19T07:34:51;14.50;;;8.20;;
3571;SDS011;7958;53.024;12.970;2023-01-19T07:37:18;10.63;;;7.57;;
3571;SDS011;7958;53.024;12.970;2023-01-19T07:39:44;13.00;;;8.07;;
3571;SDS011;7958;53.024;12.970;2023-01-19T07:42:11;12.83;;;7.73;;
3571;SDS011;7958;53.024;12.970;2023-01-19T07:44:39;9.67;;;6.60;;
3571;SDS011;7958;53.024;12.970;2023-01-19T07:47:06;13.60;;;7.57;;
3571;SDS011;7958;53.024;12.970;2023-01-19T07:49:35;12.20;;;7.27;;
3571;SDS011;7958;53.024;12.970;2023-01-19T07:52:01;9.53;;;7.33;;
3571;SDS011;7958;53.024;12.970;2023-01-19T07:54:28;15.37;;;8.67;;
3571;SDS011;7958;53.024;12.970;2023-01-19T07:56:54;9.53;;;7.33;;
3571;SDS011;7958;53.024;12.970;2023-01-19T07:59:21;12.20;;;7.90;;
3571;SDS011;7958;53.024;12.970;2023-01-19T08:01:49;13.70;;;8.03;;
3571;SDS011;7958;53.024;12.970;2023-01-19T08:04:17;12.00;;;8.27;;
3571;SDS011;7958;53.024;12.970;2023-01-19T08:06:44;14.03;;;8.50;;
3571;SDS011;7958;53.024;12.970;2023-01-19T08:09:13;11.37;;;7.07;;
3571;SDS011;7958;53.024;12.970;2023-01-19T08:11:43;14.20;;;8.40;;
3571;SDS011;7958;53.024;12.970;2023-01-19T08:14:09;12.53;;;8.40;;
3571;SDS011;7958;53.024;12.970;2023-01-19T08:16:35;15.47;;;8.97;;
3571;SDS011;7958;53.024;12.970;2023-01-19T08:19:03;10.10;;;7.90;;
3571;SDS011;7958;53.024;12.970;2023-01-19T08:21:29;13.73;;;8.30;;
3571;SDS011;7958;53.024;12.970;2023-01-19T08:23:57;13.73;;;8.47;;
3571;SDS011;7958;53.024;12.970;2023-01-19T08:26:25;12.90;;;8.87;;
3571;SDS011;7958;53.024;12.970;2023-01-19T08:28:53;11.90;;;7.80;;
3571;SDS011;7958;53.024;12.970;2023-01-19T08:31:21;15.27;;;8.67;;
3571;SDS011;7958;53.024;12.970;2023-01-19T08:33:48;11.43;;;8.50;;
3571;SDS011;7958;53.024;12.970;2023-01-19T08:36:19;17.97;;;8.93;;
3571;SDS011;7958;53.024;12.970;2023-01-19T08:38:48;10.43;;;7.40;;
3571;SDS011;7958;53.024;12.970;2023-01-19T08:41:15;10.10;;;7.70;;
3571;SDS011;7958;53.024;12.970;2023-01-19T08:43:41;14.87;;;9.20;;
3571;SDS011;7958;53.024;12.970;2023-01-19T08:46:08;15.60;;;10.63;;
3571;SDS011;7958;53.024;12.970;2023-01-19T08:48:43;12.20;;;7.80;;
3571;SDS011;7958;53.024;12.970;2023-01-19T08:51:12;10.00;;;7.57;;
3571;SDS011;7958;53.024;12.970;2023-01-19T08:53:41;13.23;;;8.40;;
3571;SDS011;7958;53.024;12.970;2023-01-19T08:56:08;7.67;;;6.30;;
3571;SDS011;7958;53.024;12.970;2023-01-19T08:58:36;10.80;;;9.00;;
3571;SDS011;7958;53.024;12.970;2023-01-19T09:01:05;12.17;;;8.37;;
3571;SDS011;7958;53.024;12.970;2023-01-19T09:03:34;15.10;;;10.47;;
3571;SDS011;7958;53.024;12.970;2023-01-19T09:06:00;14.00;;;9.60;;
3571;SDS011;7958;53.024;12.970;2023-01-19T09:08:33;9.20;;;7.73;;
3571;SDS011;7958;53.024;12.970;2023-01-19T09:11:00;15.80;;;10.57;;
3571;SDS011;7958;53.024;12.970;2023-01-19T09:13:27;10.70;;;9.17;;
3571;SDS011;7958;53.024;12.970;2023-01-19T09:15:56;12.23;;;8.07;;
3571;SDS011;7958;53.024;12.970;2023-01-19T09:18:22;14.47;;;9.63;;
3571;SDS011;7958;53.024;12.970;2023-01-19T09:20:48;12.10;;;8.83;;
3571;SDS011;7958;53.024;12.970;2023-01-19T09:23:16;11.40;;;8.20;;
3571;SDS011;7958;53.024;12.970;2023-01-19T09:25:45;9.40;;;6.70;;
3571;SDS011;7958;53.024;12.970;2023-01-19T09:28:16;10.37;;;7.40;;
3571;SDS011;7958;53.024;12.970;2023-01-19T09:30:54;11.00;;;7.70;;
3571;SDS011;7958;53.024;12.970;2023-01-19T09:33:21;10.13;;;7.30;;
3571;SDS011;7958;53.024;12.970;2023-01-19T09:35:48;9.70;;;7.10;;
3571;SDS011;7958;53.024;12.970;2023-01-19T09:38:16;12.07;;;7.00;;
3571;SDS011;7958;53.024;12.970;2023-01-19T09:40:44;8.07;;;6.10;;
3571;SDS011;7958;53.024;12.970;2023-01-19T09:43:13;10.00;;;6.93;;
3571;SDS011;7958;53.024;12.970;2023-01-19T09:45:50;8.83;;;6.83;;
3571;SDS011;7958;53.024;12.970;2023-01-19T09:48:21;10.27;;;6.70;;
3571;SDS011;7958;53.024;12.970;2023-01-19T09:50:52;7.70;;;5.93;;
3571;SDS011;7958;53.024;12.970;2023-01-19T09:53:32;8.53;;;6.80;;
3571;SDS011;7958;53.024;12.970;2023-01-19T09:56:07;9.80;;;7.00;;
3571;SDS011;7958;53.024;12.970;2023-01-19T09:58:37;8.43;;;6.47;;
3571;SDS011;7958;53.024;12.970;2023-01-19T10:01:11;9.20;;;6.13;;
3571;SDS011;7958;53.024;12.970;2023-01-19T10:03:45;11.43;;;6.90;;
3571;SDS011;7958;53.024;12.970;2023-01-19T10:06:14;8.73;;;5.70;;
3571;SDS011;7958;53.024;12.970;2023-01-19T10:08:46;11.90;;;6.77;;
3571;SDS011;7958;53.024;12.970;2023-01-19T10:11:24;10.43;;;6.70;;
3571;SDS011;7958;53.024;12.970;2023-01-19T10:13:57;6.93;;;5.87;;
3571;SDS011;7958;53.024;12.970;2023-01-19T10:16:28;8.47;;;6.73;;
3571;SDS011;7958;53.024;12.970;2023-01-19T10:18:59;8.60;;;6.20;;
3571;SDS011;7958;53.024;12.970;2023-01-19T10:21:28;8.20;;;5.93;;
3571;SDS011;7958;53.024;12.970;2023-01-19T10:23:57;10.30;;;6.43;;
3571;SDS011;7958;53.024;12.970;2023-01-19T10:26:28;12.13;;;5.83;;
3571;SDS011;7958;53.024;12.970;2023-01-19T10:29:02;9.50;;;6.60;;
3571;SDS011;7958;53.024;12.970;2023-01-19T10:31:31;8.43;;;6.30;;
3571;SDS011;7958;53.024;12.970;2023-01-19T10:33:59;10.43;;;6.40;;
3571;SDS011;7958;53.024;12.970;2023-01-19T10:36:27;7.30;;;6.00;;
3571;SDS011;7958;53.024;12.970;2023-01-19T10:38:57;8.77;;;5.50;;
3571;SDS011;7958;53.024;12.970;2023-01-19T10:41:24;8.63;;;6.10;;
3571;SDS011;7958;53.024;12.970;2023-01-19T10:43:59;6.87;;;5.40;;
3571;SDS011;7958;53.024;12.970;2023-01-19T10:46:29;8.13;;;6.90;;
3571;SDS011;7958;53.024;12.970;2023-01-19T10:48:59;6.80;;;5.33;;
3571;SDS011;7958;53.024;12.970;2023-01-19T10:51:25;6.33;;;4.77;;
3571;SDS011;7958;53.024;12.970;2023-01-19T10:53:59;9.43;;;6.27;;
3571;SDS011;7958;53.024;12.970;2023-01-19T10:56:28;9.00;;;5.57;;
3571;SDS011;7958;53.024;12.970;2023-01-19T10:58:58;6.47;;;5.30;;
3571;SDS011;7958;53.024;12.970;2023-01-19T11:01:29;10.67;;;5.27;;
3571;SDS011;7958;53.024;12.970;2023-01-19T11:04:00;7.83;;;6.40;;
3571;SDS011;7958;53.024;12.970;2023-01-19T11:06:32;8.20;;;5.60;;
3571;SDS011;7958;53.024;12.970;2023-01-19T11:09:08;8.13;;;5.10;;
3571;SDS011;7958;53.024;12.970;2023-01-19T11:11:40;10.10;;;5.67;;
3571;SDS011;7958;53.024;12.970;2023-01-19T11:14:08;11.07;;;4.93;;
3571;SDS011;7958;53.024;12.970;2023-01-19T11:16:37;6.50;;;4.80;;
3571;SDS011;7958;53.024;12.970;2023-01-19T11:19:04;6.77;;;4.77;;
3571;SDS011;7958;53.024;12.970;2023-01-19T11:21:31;7.10;;;5.40;;
3571;SDS011;7958;53.024;12.970;2023-01-19T11:23:58;9.10;;;5.83;;
3571;SDS011;7958;53.024;12.970;2023-01-19T11:26:26;9.83;;;5.43;;
3571;SDS011;7958;53.024;12.970;2023-01-19T11:28:55;7.13;;;5.30;;
3571;SDS011;7958;53.024;12.970;2023-01-19T11:31:29;6.73;;;5.47;;
3571;SDS011;7958;53.024;12.970;2023-01-19T11:34:21;7.10;;;5.03;;
3571;SDS011;7958;53.024;12.970;2023-01-19T11:36:53;6.30;;;5.40;;
3571;SDS011;7958;53.024;12.970;2023-01-19T11:39:21;5.70;;;5.03;;
3571;SDS011;7958;53.024;12.970;2023-01-19T11:41:50;7.30;;;5.43;;
3571;SDS011;7958;53.024;12.970;2023-01-19T11:44:18;7.00;;;4.97;;
3571;SDS011;7958;53.024;12.970;2023-01-19T11:46:48;4.93;;;3.90;;
3571;SDS011;7958;53.024;12.970;2023-01-19T11:49:20;4.80;;;4.30;;
3571;SDS011;7958;53.024;12.970;2023-01-19T11:51:55;5.87;;;4.93;;
3571;SDS011;7958;53.024;12.970;2023-01-19T11:54:25;5.63;;;4.80;;
3571;SDS011;7958;53.024;12.970;2023-01-19T11:56:57;10.40;;;5.30;;
3571;SDS011;7958;53.024;12.970;2023-01-19T11:59:28;7.00;;;4.87;;
3571;SDS011;7958;53.024;12.970;2023-01-19T12:01:57;8.70;;;6.27;;
3571;SDS011;7958;53.024;12.970;2023-01-19T12:04:28;6.50;;;5.57;;
3571;SDS011;7958;53.024;12.970;2023-01-19T12:07:01;6.57;;;5.40;;
3571;SDS011;7958;53.024;12.970;2023-01-19T12:09:49;5.00;;;4.50;;
3571;SDS011;7958;53.024;12.970;2023-01-19T12:12:27;5.60;;;5.03;;
3571;SDS011;7958;53.024;12.970;2023-01-19T12:14:56;5.33;;;4.53;;
3571;SDS011;7958;53.024;12.970;2023-01-19T12:17:26;8.80;;;7.90;;
3571;SDS011;7958;53.024;12.970;2023-01-19T12:19:55;7.60;;;5.30;;
3571;SDS011;7958;53.024;12.970;2023-01-19T12:22:25;10.03;;;5.50;;
3571;SDS011;7958;53.024;12.970;2023-01-19T12:24:53;8.37;;;4.90;;
3571;SDS011;7958;53.024;12.970;2023-01-19T12:27:24;7.60;;;5.57;;
3571;SDS011;7958;53.024;12.970;2023-01-19T12:29:55;6.33;;;4.73;;
3571;SDS011;7958;53.024;12.970;2023-01-19T12:32:30;7.20;;;5.87;;
3571;SDS011;7958;53.024;12.970;2023-01-19T12:34:59;10.10;;;6.60;;
3571;SDS011;7958;53.024;12.970;2023-01-19T12:37:38;7.33;;;5.27;;
3571;SDS011;7958;53.024;12.970;2023-01-19T12:40:19;8.27;;;6.27;;
3571;SDS011;7958;53.024;12.970;2023-01-19T12:42:57;9.50;;;5.97;;
3571;SDS011;7958;53.024;12.970;2023-01-19T12:45:27;6.50;;;5.30;;
3571;SDS011;7958;53.024;12.970;2023-01-19T12:47:56;13.40;;;6.63;;
3571;SDS011;7958;53.024;12.970;2023-01-19T12:50:24;7.70;;;6.20;;
3571;SDS011;7958;53.024;12.970;2023-01-19T12:52:53;7.00;;;5.83;;
3571;SDS011;7958;53.024;12.970;2023-01-19T12:55:23;10.40;;;7.90;;
3571;SDS011;7958;53.024;12.970;2023-01-19T12:57:58;8.50;;;6.40;;
3571;SDS011;7958;53.024;12.970;2023-01-19T13:00:27;7.30;;;5.90;;
3571;SDS011;7958;53.024;12.970;2023-01-19T13:02:58;8.33;;;6.60;;
3571;SDS011;7958;53.024;12.970;2023-01-19T13:08:24;18.10;;;12.50;;
3571;SDS011;7958;53.024;12.970;2023-01-19T13:16:56;12.10;;;9.43;;
3571;SDS011;7958;53.024;12.970;2023-01-19T13:19:31;9.20;;;7.17;;
3571;SDS011;7958;53.024;12.970;2023-01-19T13:25:12;9.00;;;6.67;;
3571;SDS011;7958;53.024;12.970;2023-01-19T13:27:50;9.13;;;6.83;;
3571;SDS011;7958;53.024;12.970;2023-01-19T13:30:24;11.37;;;7.77;;
3571;SDS011;7958;53.024;12.970;2023-01-19T13:32:52;9.10;;;6.27;;
3571;SDS011;7958;53.024;12.970;2023-01-19T13:35:22;71.20;;;34.13;;
3571;SDS011;7958;53.024;12.970;2023-01-19T13:37:49;185.57;;;71.13;;
3571;SDS011;7958;53.024;12.970;2023-01-19T13:40:19;170.63;;;56.80;;
3571;SDS011;7958;53.024;12.970;2023-01-19T13:42:48;175.83;;;58.20;;
3571;SDS011;7958;53.024;12.970;2023-01-19T13:45:25;41.80;;;17.60;;
3571;SDS011;7958;53.024;12.970;2023-01-19T13:47:53;33.70;;;18.13;;
3571;SDS011;7958;53.024;12.970;2023-01-19T13:50:22;69.33;;;35.27;;
3571;SDS011;7958;53.024;12.970;2023-01-19T13:52:50;9.00;;;6.33;;
3571;SDS011;7958;53.024;12.970;2023-01-19T13:55:21;34.40;;;24.73;;
3571;SDS011;7958;53.024;12.970;2023-01-19T13:57:48;21.63;;;17.93;;
3571;SDS011;7958;53.024;12.970;2023-01-19T14:00:16;12.23;;;10.70;;
3571;SDS011;7958;53.024;12.970;2023-01-19T14:02:52;17.00;;;13.33;;
3571;SDS011;7958;53.024;12.970;2023-01-19T14:05:21;16.47;;;9.27;;
3571;SDS011;7958;53.024;12.970;2023-01-19T14:07:57;9.03;;;6.80;;
3571;SDS011;7958;53.024;12.970;2023-01-19T14:10:26;8.47;;;5.77;;
3571;SDS011;7958;53.024;12.970;2023-01-19T14:12:59;8.63;;;5.63;;
3571;SDS011;7958;53.024;12.970;2023-01-19T14:15:26;30.67;;;15.80;;
3571;SDS011;7958;53.024;12.970;2023-01-19T14:18:09;11.43;;;6.47;;
3571;SDS011;7958;53.024;12.970;2023-01-19T14:20:37;8.00;;;5.60;;
3571;SDS011;7958;53.024;12.970;2023-01-19T14:23:03;9.30;;;5.90;;
3571;SDS011;7958;53.024;12.970;2023-01-19T14:25:32;7.77;;;5.77;;
3571;SDS011;7958;53.024;12.970;2023-01-19T14:30:52;11.60;;;8.03;;
3571;SDS011;7958;53.024;12.970;2023-01-19T14:33:40;6.90;;;5.60;;
3571;SDS011;7958;53.024;12.970;2023-01-19T14:36:17;8.93;;;5.60;;
3571;SDS011;7958;53.024;12.970;2023-01-19T14:39:03;6.17;;;4.80;;
3571;SDS011;7958;53.024;12.970;2023-01-19T14:41:36;6.83;;;5.30;;
3571;SDS011;7958;53.024;12.970;2023-01-19T14:44:07;7.23;;;5.77;;
3571;SDS011;7958;53.024;12.970;2023-01-19T14:46:36;7.70;;;6.10;;
3571;SDS011;7958;53.024;12.970;2023-01-19T14:49:06;8.10;;;6.27;;
3571;SDS011;7958;53.024;12.970;2023-01-19T14:51:33;11.30;;;9.50;;
3571;SDS011;7958;53.024;12.970;2023-01-19T14:54:02;12.70;;;8.30;;
3571;SDS011;7958;53.024;12.970;2023-01-19T14:56:38;14.83;;;5.80;;
3571;SDS011;7958;53.024;12.970;2023-01-19T14:59:06;13.03;;;9.63;;
3571;SDS011;7958;53.024;12.970;2023-01-19T15:01:35;9.17;;;5.50;;
3571;SDS011;7958;53.024;12.970;2023-01-19T15:04:01;10.40;;;5.87;;
3571;SDS011;7958;53.024;12.970;2023-01-19T15:06:27;13.23;;;8.33;;
3571;SDS011;7958;53.024;12.970;2023-01-19T15:08:54;10.97;;;6.73;;
3571;SDS011;7958;53.024;12.970;2023-01-19T15:11:21;9.60;;;5.53;;
3571;SDS011;7958;53.024;12.970;2023-01-19T15:13:50;29.23;;;20.80;;
3571;SDS011;7958;53.024;12.970;2023-01-19T15:16:16;7.90;;;7.10;;
3571;SDS011;7958;53.024;12.970;2023-01-19T15:18:43;6.93;;;5.80;;
3571;SDS011;7958;53.024;12.970;2023-01-19T15:21:13;8.10;;;5.00;;